Flight Track Log - Related Links

Times and Time Zones

All times are in EDT time to prevent confusion due to time zone crossing. See the WIG7117 flight status page for this flight to view local times or setup timezone preferences in your user account.

Time Position Orientation Groundspeed Altitude Reporting Facility
EDT Latitude Longitude Course Direction KTS MPH feet Rate Location/Type
Tue 10:24:30 PM 42.7547 -73.8086 309° West 83 96 900  Level Boston Center
Tue 10:25:43 PM 42.7753 -73.8431 309° West 116 133 2,100 940 Climbing Boston Center
Tue 10:26:44 PM 42.7872 -73.8858 291° West 123 142 3,000 893 Climbing Boston Center
Tue 10:27:44 PM 42.7969 -73.9369 285° West 134 154 3,900 793 Climbing Boston Center
Tue 10:28:45 PM 42.8089 -73.9853 289° West 131 151 4,600 738 Climbing Boston Center
Tue 10:29:46 PM 42.8186 -74.0308 286° West 132 152 5,400 843 Climbing Boston Center
Tue 10:30:46 PM 42.8264 -74.0792 282° West 130 150 6,300 793 Climbing Boston Center
Tue 10:31:47 PM 42.8339 -74.1275 282° West 130 150 7,000 694 Climbing Boston Center
Tue 10:32:47 PM 42.8436 -74.1789 284° West 135 155 7,700 496 Climbing Boston Center
Tue 10:33:48 PM 42.8489 -74.2300 278° West 143 165 8,000 148 Climbing Boston Center
Tue 10:34:49 PM 42.8564 -74.2953 279° West 158 182 8,000 58 Level Boston Center
Tue 10:35:31 PM 42.8639 -74.3350 284° West 155 178 8,100 58 Climbing Boston Center
Tue 10:36:32 PM 42.8714 -74.3892 281° West 151 174 8,100  Level Boston Center
Tue 10:37:32 PM 42.8808 -74.4489 282° West 152 175 8,100  Level Boston Center
Tue 10:38:33 PM 42.8881 -74.5031 280° West 153 176 8,100 -49 Level Boston Center
Tue 10:39:34 PM 42.8975 -74.5600 283° West 154 177 8,000 -50 Descending Boston Center
Tue 10:40:34 PM 42.9069 -74.6172 283° West 152 175 8,000 50 Level Boston Center
Tue 10:41:35 PM 42.9142 -74.6769 279° West 152 175 8,100 47 Climbing Boston Center
Tue 10:42:41 PM 42.9233 -74.7397 281° West 153 176 8,100  Level Boston Center
Tue 10:43:42 PM 42.9325 -74.7939 283° West 152 175 8,100  Level Boston Center
Tue 10:44:43 PM 42.9397 -74.8508 280° West 153 176 8,100  Level Boston Center
Tue 10:45:49 PM 42.9486 -74.9164 281° West 151 174 8,100  Level Boston Center
Tue 10:46:50 PM 42.9578 -74.9736 282° West 150 173 8,100  Level Boston Center
Tue 10:47:51 PM 42.9650 -75.0278 280° West 149 171 8,100  Level Boston Center
Tue 10:48:51 PM 42.9742 -75.0878 282° West 151 174 8,100  Level Boston Center
Tue 10:49:52 PM 42.9833 -75.1392 284° West 151 174 8,100  Level Boston Center
Tue 10:50:52 PM 42.9881 -75.1964 276° West 152 175 8,100  Level Boston Center
Tue 10:51:53 PM 42.9972 -75.2564 282° West 154 177 8,100 -148 Level Boston Center
Tue 10:52:54 PM 43.0039 -75.3133 279° West 155 178 7,800 -645 Descending Boston Center
Tue 10:53:54 PM 43.0147 -75.3822 282° West 172 198 6,800 -942 Descending Boston Center
Tue 10:54:55 PM 43.0236 -75.4450 281° West 180 207 5,900 -793 Descending Boston Center
Tue 10:55:55 PM 43.0322 -75.5108 280° West 174 200 5,200 -744 Descending Boston Center
Tue 10:56:56 PM 43.0386 -75.5764 278° West 171 197 4,400 -590 Descending Boston Center
Tue 10:57:57 PM 43.0494 -75.6394 283° West 170 196 4,000 -209 Descending Boston Center
Tue 10:58:51 PM 43.0564 -75.6939 280° West 155 178 4,000  Level Boston Center
Tue 10:59:52 PM 43.0653 -75.7483 283° West 148 170 4,000  Level Boston Center
Tue 11:00:46 PM 43.0719 -75.7969 281° West 148 170 4,000 -365 Level Boston Center
Tue 11:01:47 PM 43.0725 -75.8567 271° West 169 194 3,300 -590 Descending Boston Center
Tue 11:02:48 PM 43.0706 -75.9192 268° West 164 189 2,800 -595 Descending Boston Center
Tue 11:03:48 PM 43.0708 -75.9761 270° West 153 176 2,100 -645 Descending Boston Center
Tue 11:04:49 PM 43.0772 -76.0361 278° West 155 178 1,500 -744 Descending Boston Center
Tue 11:05:49 PM 43.0986 -76.0886 299° West 163 188 600 -900 Descending Boston Center

Login

Don't have an account? Register now (free) for customized features, flight alerts, and more!